This is the latest recevied weather packets stored in our database for station/object WT9M-8. If no packets are shown the sender has not sent any weather packets the latest 10 day(s).
| Time | Temp. | Humidity | Pressure | Rain* | Wind** | Luminosity | Snow |
|---|---|---|---|---|---|---|---|
| 1777349431 | 12.78° C | 87% | 1001.6 hPa | 0 mm | - | 0 W/m² | - |
| 1777341026 | 16.67° C | 87% | 998.8 hPa | 0 mm | - | 0 W/m² | - |
| 1777338627 | 17.22° C | 87% | 997.9 hPa | 2.29 mm | - | 0 W/m² | - |
| 1777338023 | 17.22° C | 87% | 997.7 hPa | 3.05 mm | - | 0 W/m² | - |
| 1777336854 | 17.22° C | 87% | 997.5 hPa | 3.05 mm | - | 10 W/m² | - |
| 1777333226 | 18.33° C | 83% | 997.6 hPa | 0 mm | - | 9 W/m² | - |
| 1777331434 | 18.89° C | 80% | 998 hPa | 0 mm | - | 34 W/m² | - |
| 1777330224 | 19.44° C | 79% | 998.1 hPa | 0 mm | - | 37 W/m² | - |
| 1777328430 | 19.44° C | 78% | 997.4 hPa | 0 mm | - | 87 W/m² | - |
| 1777326031 | 19.44° C | 78% | 998.2 hPa | 0 mm | - | 58 W/m² | - |
| 1777323632 | 19.44° C | 80% | 998.3 hPa | 0 mm | - | 233 W/m² | - |
| 1777320024 | 19.44° C | 84% | 999 hPa | 0 mm | - | 371 W/m² | - |
| 1777318834 | 16.67° C | 87% | 999.7 hPa | 0 mm | - | 405 W/m² | - |
| 1777318230 | 16.11° C | 88% | 999.9 hPa | 0 mm | - | 136 W/m² | - |
| 1777317624 | 15.56° C | 87% | 1000.2 hPa | 0 mm | - | 62 W/m² | - |
| 1777315830 | 15° C | 87% | 1000.3 hPa | 0 mm | - | 47 W/m² | - |
| 1777314056 | 15° C | 88% | 1000.6 hPa | 0 mm | - | 34 W/m² | - |
| 1777309218 | 13.89° C | 90% | 995 hPa | 2.29 mm | - | 173 W/m² | - |
| 1777302625 | 14.44° C | 81% | 1004.4 hPa | 0 mm | - | 26 W/m² | - |
| 1777299017 | 15° C | 79% | 1005.2 hPa | 0 mm | - | 45 W/m² | - |
| 1777297222 | 13.89° C | 81% | 1005.3 hPa | 0 mm | - | 69 W/m² | - |
| 1777293030 | 12.78° C | 85% | 1006.1 hPa | 0 mm | - | 51 W/m² | - |
| 1777291820 | 12.22° C | 85% | 1006.4 hPa | 0 mm | - | 4 W/m² | - |
| 1777290025 | 11.67° C | 84% | 1007.3 hPa | 0.25 mm | - | 12 W/m² | - |
| 1777289422 | 11.67° C | 84% | 1007.2 hPa | 0.25 mm | - | 8 W/m² | - |
* Rain latest hour (hover to see other rain measurements)
** Current wind speed in m/s (hover to see current wind gust speed)